createdAt,value
2022-08-02T00:00:18.282Z,9.50
2022-08-02T00:01:50.053Z,11.15
2022-08-02T00:03:21.816Z,10.93
2022-08-02T00:04:55.374Z,9.80
2022-08-02T00:06:27.228Z,9.40
2022-08-02T00:07:58.942Z,12.32
2022-08-02T00:09:30.645Z,10.00
2022-08-02T00:11:02.324Z,13.15
2022-08-02T00:12:35.379Z,13.23
2022-08-02T00:14:07.076Z,11.70
2022-08-02T00:15:38.794Z,10.40
2022-08-02T00:17:10.489Z,10.20
2022-08-02T00:18:42.265Z,12.00
2022-08-02T00:20:14.034Z,11.40
2022-08-02T00:21:46.200Z,14.88
2022-08-02T00:23:18.073Z,12.30
2022-08-02T00:24:49.779Z,10.40
2022-08-02T00:26:21.466Z,13.15
2022-08-02T00:27:54.503Z,13.05
2022-08-02T00:29:26.915Z,11.23
2022-08-02T00:30:59.260Z,10.05
2022-08-02T00:32:30.941Z,11.55
2022-08-02T00:34:26.623Z,10.77
2022-08-02T00:35:54.540Z,10.02
2022-08-02T00:37:26.198Z,12.40
2022-08-02T00:38:58.113Z,11.77
2022-08-02T00:40:30.396Z,9.82
2022-08-02T00:42:02.448Z,13.23
2022-08-02T00:43:35.468Z,12.15
2022-08-02T00:45:08.828Z,12.68
2022-08-02T00:46:40.481Z,11.60
2022-08-02T00:48:13.140Z,11.20
2022-08-02T00:49:44.867Z,12.25
2022-08-02T00:51:17.221Z,13.52
2022-08-02T00:52:48.891Z,12.65
2022-08-02T00:54:20.641Z,12.75
2022-08-02T00:55:52.472Z,9.52
2022-08-02T00:57:24.237Z,11.45
2022-08-02T00:58:57.437Z,11.00
2022-08-02T01:00:29.854Z,11.75
2022-08-02T01:02:01.798Z,12.27
2022-08-02T01:03:33.535Z,10.70
2022-08-02T01:05:05.899Z,12.27
2022-08-02T01:06:39.166Z,12.38
2022-08-02T01:08:11.070Z,11.48
2022-08-02T01:09:43.630Z,11.40
2022-08-02T01:11:15.280Z,10.77
2022-08-02T01:12:47.881Z,11.90
2022-08-02T01:14:24.265Z,9.73
2022-08-02T01:16:11.501Z,13.07
2022-08-02T01:17:49.446Z,11.60
2022-08-02T01:19:34.645Z,10.27
2022-08-02T01:21:27.622Z,11.38
2022-08-02T01:23:25.952Z,11.10
2022-08-02T01:25:15.221Z,16.00
2022-08-02T01:26:52.621Z,12.23
2022-08-02T01:28:36.042Z,11.13
2022-08-02T01:30:08.148Z,10.07
2022-08-02T01:31:44.996Z,11.93
2022-08-02T01:33:20.078Z,12.75
2022-08-02T01:34:57.475Z,10.15
2022-08-02T01:36:34.867Z,12.60
2022-08-02T01:38:11.702Z,10.85
2022-08-02T01:39:46.924Z,12.30
2022-08-02T01:41:21.401Z,13.07
2022-08-02T01:42:55.161Z,10.73
2022-08-02T01:44:30.428Z,9.90
2022-08-02T01:46:04.376Z,12.27
2022-08-02T01:47:40.424Z,10.45
2022-08-02T01:49:16.158Z,12.18
2022-08-02T01:50:49.746Z,12.32
2022-08-02T01:52:23.887Z,11.45
2022-08-02T01:53:55.888Z,13.52
2022-08-02T01:55:35.229Z,14.00
2022-08-02T01:57:27.333Z,12.23
2022-08-02T01:58:59.300Z,12.15
2022-08-02T02:00:36.597Z,11.65
2022-08-02T02:02:10.651Z,11.32
2022-08-02T02:03:44.640Z,12.23
2022-08-02T02:05:19.344Z,12.80
2022-08-02T02:06:52.595Z,11.80
2022-08-02T02:08:28.875Z,10.55
2022-08-02T02:10:03.444Z,10.82
2022-08-02T02:12:12.170Z,12.88
2022-08-02T02:13:33.220Z,10.75
2022-08-02T02:15:10.138Z,12.35
2022-08-02T02:16:46.393Z,10.45
2022-08-02T02:18:23.295Z,11.95
2022-08-02T02:19:57.975Z,13.10
2022-08-02T02:21:31.376Z,10.63
2022-08-02T02:23:04.021Z,11.07
2022-08-02T02:24:35.896Z,9.55
2022-08-02T02:26:11.309Z,11.07
2022-08-02T02:27:49.861Z,11.02
2022-08-02T02:29:25.338Z,12.50
2022-08-02T02:31:02.001Z,12.07
2022-08-02T02:32:35.906Z,13.60
2022-08-02T02:34:10.953Z,12.27
2022-08-02T02:35:44.998Z,11.13
2022-08-02T02:37:20.516Z,12.35
2022-08-02T02:38:54.161Z,14.05
2022-08-02T02:40:27.452Z,13.38
2022-08-02T02:42:03.597Z,12.45
2022-08-02T02:43:38.181Z,12.88
2022-08-02T02:45:11.207Z,11.52
2022-08-02T02:46:44.283Z,10.93
2022-08-02T02:48:17.884Z,10.05
2022-08-02T02:49:52.007Z,9.73
2022-08-02T02:51:24.864Z,11.93
2022-08-02T02:52:58.072Z,9.85
2022-08-02T02:54:34.313Z,10.98
2022-08-02T02:56:07.308Z,12.25
2022-08-02T02:57:40.137Z,11.25
2022-08-02T02:59:14.171Z,12.70
2022-08-02T03:01:05.150Z,11.48
2022-08-02T03:02:39.147Z,12.02
2022-08-02T03:04:13.720Z,10.45
2022-08-02T03:05:45.494Z,12.57
2022-08-02T03:07:17.482Z,11.38
2022-08-02T03:08:49.434Z,13.13
2022-08-02T03:10:21.331Z,11.30
2022-08-02T03:11:54.058Z,13.23
2022-08-02T03:13:26.191Z,11.18
2022-08-02T03:15:07.745Z,12.73
2022-08-02T03:16:43.968Z,11.25
2022-08-02T03:18:30.224Z,11.07
2022-08-02T03:20:08.337Z,9.80
2022-08-02T03:21:41.328Z,12.18
2022-08-02T03:23:13.011Z,11.15
2022-08-02T03:24:44.678Z,13.23
2022-08-02T03:26:16.617Z,10.65
2022-08-02T03:27:48.349Z,11.63
2022-08-02T03:29:20.024Z,13.50
2022-08-02T03:30:51.861Z,11.93
2022-08-02T03:32:24.238Z,13.30
2022-08-02T03:33:58.211Z,11.93
2022-08-02T03:35:31.702Z,13.80
2022-08-02T03:37:03.846Z,11.52
2022-08-02T03:38:36.744Z,12.73
2022-08-02T03:40:10.800Z,12.30
2022-08-02T03:41:43.915Z,11.93
2022-08-02T03:43:16.479Z,17.55
2022-08-02T03:44:48.912Z,13.30
2022-08-02T03:46:23.898Z,11.73
2022-08-02T03:47:58.872Z,12.77
2022-08-02T03:49:32.133Z,12.80
2022-08-02T03:51:06.795Z,11.18
2022-08-02T03:52:40.465Z,16.27
2022-08-02T03:54:12.401Z,13.10
2022-08-02T03:55:45.143Z,12.73
2022-08-02T03:57:17.002Z,11.43
2022-08-02T03:58:49.519Z,12.50
2022-08-02T04:00:22.798Z,10.82
2022-08-02T04:01:54.449Z,15.70
2022-08-02T04:03:26.870Z,11.68
2022-08-02T04:04:58.670Z,12.35
2022-08-02T04:06:31.711Z,15.73
2022-08-02T04:08:35.416Z,15.88
2022-08-02T04:09:55.257Z,12.30
2022-08-02T04:11:33.070Z,13.57
2022-08-02T04:13:04.783Z,13.75
2022-08-02T04:14:36.869Z,13.20
2022-08-02T04:16:14.022Z,13.27
2022-08-02T04:17:50.761Z,11.40
2022-08-02T04:19:28.076Z,13.85
2022-08-02T04:21:02.301Z,13.15
2022-08-02T04:22:39.675Z,13.07
2022-08-02T04:24:12.685Z,12.02
2022-08-02T04:25:51.578Z,14.05
2022-08-02T04:27:51.367Z,11.98
2022-08-02T04:29:18.451Z,15.68
2022-08-02T04:30:51.256Z,12.10
2022-08-02T04:32:23.847Z,13.63
2022-08-02T04:33:55.786Z,16.05
2022-08-02T04:35:27.925Z,14.50
2022-08-02T04:37:00.568Z,16.63
2022-08-02T04:38:34.011Z,12.80
2022-08-02T04:40:09.470Z,15.30
2022-08-02T04:41:44.223Z,13.18
2022-08-02T04:43:16.114Z,12.45
2022-08-02T04:44:47.857Z,13.48
2022-08-02T04:46:19.574Z,14.25
2022-08-02T04:48:03.536Z,11.50
2022-08-02T04:49:36.145Z,13.30
2022-08-02T04:51:07.869Z,14.63
2022-08-02T04:52:42.874Z,14.35
2022-08-02T04:54:18.749Z,14.48
2022-08-02T04:55:50.563Z,15.90
2022-08-02T04:57:41.319Z,14.50
2022-08-02T04:59:24.506Z,13.95
2022-08-02T05:00:56.330Z,14.68
2022-08-02T05:02:28.031Z,14.60
2022-08-02T05:03:59.752Z,15.60
2022-08-02T05:05:31.617Z,14.02
2022-08-02T05:07:03.318Z,14.45
2022-08-02T05:08:35.010Z,18.98
2022-08-02T05:10:08.897Z,16.65
2022-08-02T05:11:40.631Z,14.15
2022-08-02T05:13:12.348Z,15.75
2022-08-02T05:14:44.035Z,14.48
2022-08-02T05:16:15.971Z,13.35
2022-08-02T05:17:48.907Z,12.50
2022-08-02T05:19:20.745Z,15.77
2022-08-02T05:20:56.504Z,16.02
2022-08-02T05:22:29.959Z,14.38
2022-08-02T05:24:01.664Z,16.83
2022-08-02T05:25:34.754Z,13.77
2022-08-02T05:27:17.126Z,14.48
2022-08-02T05:28:53.791Z,11.95
2022-08-02T05:30:25.577Z,14.93
2022-08-02T05:31:57.236Z,14.70
2022-08-02T05:33:29.156Z,13.32
2022-08-02T05:35:01.763Z,10.52
2022-08-02T05:36:33.449Z,21.63
2022-08-02T05:38:05.234Z,14.95
2022-08-02T05:39:55.810Z,12.30
2022-08-02T05:41:29.428Z,14.05
2022-08-02T05:43:01.411Z,13.32
2022-08-02T05:44:33.120Z,13.68
2022-08-02T05:46:04.953Z,14.38
2022-08-02T05:47:37.215Z,13.07
2022-08-02T05:49:08.911Z,13.70
2022-08-02T05:50:45.576Z,12.75
2022-08-02T05:52:19.199Z,12.50
2022-08-02T05:53:55.314Z,11.00
2022-08-02T05:55:35.267Z,13.07
2022-08-02T05:57:15.556Z,12.75
2022-08-02T05:58:52.835Z,14.20
2022-08-02T06:00:27.702Z,13.23
2022-08-02T06:02:11.466Z,13.65
2022-08-02T06:03:51.497Z,15.23
2022-08-02T06:05:27.052Z,13.73
2022-08-02T06:07:02.734Z,14.65
2022-08-02T06:08:47.391Z,15.05
2022-08-02T06:10:21.536Z,14.80
2022-08-02T06:12:01.639Z,12.23
2022-08-02T06:13:36.304Z,13.80
2022-08-02T06:15:08.777Z,16.17
2022-08-02T06:16:42.419Z,14.50
2022-08-02T06:18:16.414Z,14.52
2022-08-02T06:19:52.274Z,15.45
2022-08-02T06:22:33.903Z,14.32
2022-08-02T06:23:18.074Z,12.68
2022-08-02T06:24:50.781Z,11.90
2022-08-02T06:26:23.679Z,12.02
2022-08-02T06:27:56.322Z,12.63
2022-08-02T06:29:35.712Z,12.10
2022-08-02T06:31:12.803Z,15.60
2022-08-02T06:32:45.387Z,13.40
2022-08-02T06:34:17.152Z,13.27
2022-08-02T06:35:56.955Z,12.18
2022-08-02T06:37:37.943Z,17.40
2022-08-02T06:39:15.990Z,15.02
2022-08-02T06:40:52.718Z,13.63
2022-08-02T06:42:31.006Z,10.23
2022-08-02T06:44:26.203Z,13.82
2022-08-02T06:46:37.765Z,13.18
2022-08-02T06:47:49.306Z,10.93
2022-08-02T06:49:21.137Z,12.65
2022-08-02T06:50:52.885Z,13.40
2022-08-02T06:52:28.858Z,13.80
2022-08-02T06:54:01.315Z,9.88
2022-08-02T06:55:33.186Z,11.85
2022-08-02T06:57:15.539Z,11.88
2022-08-02T06:58:47.317Z,11.98
2022-08-02T07:00:19.138Z,11.02
2022-08-02T07:01:52.318Z,12.68
2022-08-02T07:03:25.649Z,12.68
2022-08-02T07:04:57.654Z,11.75
2022-08-02T07:06:29.370Z,12.07
2022-08-02T07:08:01.819Z,9.38
2022-08-02T07:09:33.498Z,11.73
2022-08-02T07:11:05.293Z,11.35
2022-08-02T07:12:37.047Z,15.07
2022-08-02T07:14:08.788Z,11.45
2022-08-02T07:15:40.490Z,10.35
2022-08-02T07:17:22.375Z,10.85
2022-08-02T07:18:54.125Z,10.35
2022-08-02T07:20:25.998Z,10.82
2022-08-02T07:22:00.764Z,12.82
2022-08-02T07:23:33.701Z,12.80
2022-08-02T07:25:06.152Z,11.77
2022-08-02T07:26:55.210Z,9.43
2022-08-02T07:28:29.727Z,12.88
2022-08-02T07:30:01.763Z,10.60
2022-08-02T07:31:33.431Z,11.35
2022-08-02T07:33:07.292Z,9.75
2022-08-02T07:34:39.026Z,11.10
2022-08-02T07:36:17.005Z,8.82
2022-08-02T07:38:01.955Z,11.10
2022-08-02T07:39:34.524Z,13.80
2022-08-02T07:41:07.613Z,11.40
2022-08-02T07:42:40.473Z,9.82
2022-08-02T07:44:12.278Z,10.82
2022-08-02T07:45:55.712Z,10.02
2022-08-02T07:47:29.067Z,8.68
2022-08-02T07:49:02.152Z,9.80
2022-08-02T07:50:34.037Z,9.50
2022-08-02T07:52:06.234Z,10.52
2022-08-02T07:53:51.214Z,9.93
2022-08-02T07:55:40.174Z,11.38
2022-08-02T07:57:12.606Z,14.65
2022-08-02T07:58:44.312Z,9.27
2022-08-02T08:00:17.524Z,10.82
2022-08-02T08:01:49.762Z,10.63
2022-08-02T08:03:21.568Z,11.15
2022-08-02T08:04:54.616Z,11.57
2022-08-02T08:06:28.642Z,9.27
2022-08-02T08:08:00.747Z,9.35
2022-08-02T08:09:33.037Z,8.27
2022-08-02T08:11:04.820Z,10.13
2022-08-02T08:12:39.265Z,11.10
2022-08-02T08:14:16.167Z,10.80
2022-08-02T08:15:52.468Z,11.48
2022-08-02T08:17:24.504Z,11.55
2022-08-02T08:18:56.413Z,11.48
2022-08-02T08:20:29.480Z,11.75
2022-08-02T08:22:01.890Z,12.65
2022-08-02T08:23:33.584Z,10.52
2022-08-02T08:25:06.097Z,10.63
2022-08-02T08:26:39.869Z,12.23
2022-08-02T08:28:12.314Z,11.05
2022-08-02T08:29:44.658Z,10.75
2022-08-02T08:31:16.393Z,10.32
2022-08-02T08:32:49.146Z,11.07
2022-08-02T08:34:20.846Z,10.27
2022-08-02T08:35:55.549Z,11.20
2022-08-02T08:37:27.363Z,10.98
2022-08-02T08:38:59.104Z,12.55
2022-08-02T08:40:30.827Z,12.50
2022-08-02T08:42:06.901Z,10.57
2022-08-02T08:43:38.746Z,9.93
2022-08-02T08:45:11.358Z,12.13
2022-08-02T08:46:44.255Z,10.77
2022-08-02T08:48:25.800Z,10.38
2022-08-02T08:50:05.772Z,10.75
2022-08-02T08:51:42.044Z,12.13
2022-08-02T08:53:15.025Z,10.68
2022-08-02T08:54:49.765Z,10.63
2022-08-02T08:56:21.959Z,10.35
2022-08-02T08:57:55.043Z,10.68
2022-08-02T08:59:26.794Z,10.80
2022-08-02T09:00:59.213Z,10.68
2022-08-02T09:02:33.123Z,10.40
2022-08-02T09:04:05.194Z,10.60
2022-08-02T09:05:38.155Z,9.68
2022-08-02T09:07:11.185Z,11.35
2022-08-02T09:08:43.194Z,9.65
2022-08-02T09:10:38.835Z,11.38
2022-08-02T09:12:15.214Z,10.57
2022-08-02T09:13:53.382Z,13.52
2022-08-02T09:15:25.185Z,12.77
2022-08-02T09:17:07.141Z,11.30
2022-08-02T09:18:40.722Z,12.35
2022-08-02T09:20:12.888Z,12.15
2022-08-02T09:21:44.890Z,9.10
2022-08-02T09:23:18.880Z,11.73
2022-08-02T09:24:51.458Z,10.73
2022-08-02T09:26:24.064Z,11.27
2022-08-02T09:27:55.922Z,13.35
2022-08-02T09:29:27.654Z,10.52
2022-08-02T09:31:07.559Z,9.00
2022-08-02T09:32:45.862Z,11.60
2022-08-02T09:34:20.133Z,9.63
2022-08-02T09:36:06.664Z,9.35
2022-08-02T09:37:39.488Z,11.30
2022-08-02T09:39:14.776Z,10.48
2022-08-02T09:40:46.519Z,12.02
2022-08-02T09:42:18.559Z,11.65
2022-08-02T09:44:03.954Z,10.02
2022-08-02T09:45:37.729Z,10.77
2022-08-02T09:47:16.610Z,9.82
2022-08-02T09:48:52.890Z,12.07
2022-08-02T09:50:24.697Z,12.55
2022-08-02T09:51:57.745Z,11.02
2022-08-02T09:53:31.035Z,10.85
2022-08-02T09:55:05.342Z,8.82
2022-08-02T09:56:43.224Z,11.80
2022-08-02T09:58:19.340Z,9.65
2022-08-02T09:59:53.419Z,9.63
2022-08-02T10:01:37.043Z,10.07
2022-08-02T10:03:13.007Z,9.88
2022-08-02T10:04:54.173Z,8.27
2022-08-02T10:06:26.942Z,7.57
2022-08-02T10:07:58.696Z,8.52
2022-08-02T10:09:30.750Z,7.25
2022-08-02T10:11:04.291Z,8.85
2022-08-02T10:12:37.747Z,7.55
2022-08-02T10:14:11.144Z,8.45
2022-08-02T10:15:50.581Z,5.97
2022-08-02T10:17:23.364Z,8.68
2022-08-02T10:18:56.849Z,7.45
2022-08-02T10:20:30.333Z,8.25
2022-08-02T10:22:05.233Z,6.72
2022-08-02T10:23:39.597Z,8.45
2022-08-02T10:25:11.896Z,9.60
2022-08-02T10:26:47.397Z,8.75
2022-08-02T10:28:25.998Z,7.65
2022-08-02T10:29:59.985Z,6.00
2022-08-02T10:31:37.128Z,7.10
2022-08-02T10:33:10.874Z,8.57
2022-08-02T10:34:51.021Z,7.63
2022-08-02T10:36:26.977Z,7.75
2022-08-02T10:38:04.623Z,10.07
2022-08-02T10:39:40.421Z,8.70
2022-08-02T10:41:12.364Z,7.00
2022-08-02T10:42:48.242Z,7.45
2022-08-02T10:44:25.934Z,10.85
2022-08-02T10:46:21.245Z,10.35
2022-08-02T10:48:01.724Z,9.25
2022-08-02T10:49:48.679Z,8.23
2022-08-02T10:51:24.483Z,7.80
2022-08-02T10:53:19.292Z,7.68
2022-08-02T10:54:56.667Z,8.45
2022-08-02T10:56:46.239Z,7.47
2022-08-02T10:59:55.075Z,8.32
2022-08-02T11:01:38.936Z,7.75
2022-08-02T11:03:40.574Z,6.95
2022-08-02T11:05:15.568Z,8.55
2022-08-02T11:07:10.285Z,7.95
2022-08-02T11:08:42.079Z,8.32
2022-08-02T11:10:37.817Z,9.48
2022-08-02T11:12:11.350Z,9.82
2022-08-02T11:14:04.593Z,9.27
2022-08-02T11:15:52.460Z,8.43
2022-08-02T11:17:25.100Z,8.30
2022-08-02T11:19:06.809Z,6.10
2022-08-02T11:20:38.754Z,8.63
2022-08-02T11:22:11.985Z,7.78
2022-08-02T11:23:46.107Z,7.80
2022-08-02T11:25:48.469Z,7.00
2022-08-02T11:27:23.499Z,8.18
2022-08-02T11:28:55.440Z,8.05
2022-08-02T11:30:28.522Z,11.32
2022-08-02T11:32:00.665Z,8.15
2022-08-02T11:33:33.721Z,9.10
2022-08-02T11:35:06.095Z,10.02
2022-08-02T11:36:45.267Z,12.10
2022-08-02T11:38:19.530Z,8.07
2022-08-02T11:39:52.552Z,9.52
2022-08-02T11:41:46.079Z,11.05
2022-08-02T11:43:17.810Z,8.05
2022-08-02T11:44:49.502Z,8.07
2022-08-02T11:46:22.566Z,6.93
2022-08-02T11:47:54.781Z,7.35
2022-08-02T11:49:27.265Z,9.40
2022-08-02T11:51:10.377Z,13.07
2022-08-02T11:52:42.730Z,11.45
2022-08-02T11:54:22.966Z,8.43
2022-08-02T11:55:56.866Z,7.50
2022-08-02T11:57:28.642Z,9.43
2022-08-02T11:59:20.616Z,9.38
2022-08-02T12:00:53.923Z,7.57
2022-08-02T12:02:29.074Z,8.25
2022-08-02T12:04:02.015Z,7.85
2022-08-02T12:06:05.228Z,8.77
2022-08-02T12:07:34.584Z,8.60
2022-08-02T12:09:18.026Z,9.48
2022-08-02T12:10:51.153Z,7.80
2022-08-02T12:12:22.902Z,9.02
2022-08-02T12:13:56.901Z,8.73
2022-08-02T12:15:34.698Z,10.98
2022-08-02T12:17:25.214Z,9.40
2022-08-02T12:19:16.971Z,8.98
2022-08-02T12:20:48.870Z,8.48
2022-08-02T12:22:27.576Z,10.43
2022-08-02T12:24:02.603Z,6.55
2022-08-02T12:25:35.530Z,7.35
2022-08-02T12:27:08.187Z,5.45
2022-08-02T12:28:40.988Z,10.80
2022-08-02T12:30:14.629Z,8.30
2022-08-02T12:31:57.692Z,6.93
2022-08-02T12:33:45.392Z,7.50
2022-08-02T12:35:26.660Z,9.90
2022-08-02T12:37:00.920Z,7.82
2022-08-02T12:38:32.676Z,7.97
2022-08-02T12:40:29.465Z,6.47
2022-08-02T12:42:01.432Z,10.13
2022-08-02T12:43:33.356Z,8.45
2022-08-02T12:45:07.291Z,9.23
2022-08-02T12:46:42.146Z,8.20
2022-08-02T12:48:36.714Z,8.40
2022-08-02T12:50:13.782Z,9.18
2022-08-02T12:51:50.970Z,11.27
2022-08-02T12:53:33.224Z,9.13
2022-08-02T12:55:15.928Z,7.70
2022-08-02T12:56:48.538Z,7.68
2022-08-02T12:58:20.635Z,8.23
2022-08-02T12:59:53.955Z,9.60
2022-08-02T13:01:27.408Z,8.68
2022-08-02T13:03:00.052Z,7.72
2022-08-02T13:04:32.240Z,8.50
2022-08-02T13:06:16.967Z,8.00
2022-08-02T13:07:57.679Z,9.50
2022-08-02T13:09:36.425Z,9.13
2022-08-02T13:11:08.162Z,9.60
2022-08-02T13:12:39.944Z,9.63
2022-08-02T13:14:12.072Z,8.30
2022-08-02T13:15:49.072Z,7.20
2022-08-02T13:17:22.660Z,6.70
2022-08-02T13:18:54.438Z,8.07
2022-08-02T13:20:27.506Z,7.80
2022-08-02T13:22:03.741Z,8.52
2022-08-02T13:23:54.777Z,8.07
2022-08-02T13:25:27.040Z,10.25
2022-08-02T13:26:58.735Z,7.40
2022-08-02T13:28:30.556Z,7.93
2022-08-02T13:30:02.551Z,8.93
2022-08-02T13:31:37.305Z,9.00
2022-08-02T13:33:08.995Z,8.50
2022-08-02T13:34:40.723Z,8.00
2022-08-02T13:36:12.562Z,9.00
2022-08-02T13:37:45.436Z,7.72
2022-08-02T13:39:18.504Z,8.13
2022-08-02T13:41:08.589Z,8.75
2022-08-02T13:42:40.313Z,7.22
2022-08-02T13:44:12.087Z,7.18
2022-08-02T13:45:43.797Z,8.05
2022-08-02T13:47:15.868Z,8.68
2022-08-02T13:49:07.671Z,7.68
2022-08-02T13:50:39.452Z,6.65
2022-08-02T13:52:12.026Z,7.68
2022-08-02T13:53:43.900Z,6.25
2022-08-02T13:55:16.984Z,7.97
2022-08-02T13:56:48.805Z,8.32
2022-08-02T13:58:20.756Z,12.65
2022-08-02T13:59:56.445Z,8.48
2022-08-02T14:01:30.498Z,10.00
2022-08-02T14:03:02.524Z,7.57
2022-08-02T14:04:34.552Z,7.03
2022-08-02T14:06:09.141Z,7.25
2022-08-02T14:07:41.101Z,9.48
2022-08-02T14:09:15.718Z,9.20
2022-08-02T14:10:51.623Z,8.68
2022-08-02T14:12:23.389Z,7.93
2022-08-02T14:13:55.225Z,9.70
2022-08-02T14:15:30.207Z,7.80
2022-08-02T14:17:02.151Z,6.50
2022-08-02T14:18:33.955Z,6.45
2022-08-02T14:20:06.761Z,6.82
2022-08-02T14:21:46.816Z,6.05
2022-08-02T14:23:19.485Z,8.70
2022-08-02T14:25:11.242Z,8.75
2022-08-02T14:26:44.614Z,10.88
2022-08-02T14:28:17.662Z,8.30
2022-08-02T14:29:51.369Z,8.45
2022-08-02T14:31:24.401Z,9.13
2022-08-02T14:32:57.457Z,8.05
2022-08-02T14:34:29.682Z,6.88
2022-08-02T14:36:03.749Z,9.50
2022-08-02T14:37:36.742Z,5.97
2022-08-02T14:39:09.064Z,6.93
2022-08-02T14:40:40.759Z,5.78
2022-08-02T14:42:14.086Z,8.48
2022-08-02T14:44:04.497Z,11.32
2022-08-02T14:45:40.096Z,9.30
2022-08-02T14:47:13.188Z,7.90
2022-08-02T14:48:44.946Z,10.30
2022-08-02T14:50:17.911Z,8.02
2022-08-02T14:51:49.720Z,6.95
2022-08-02T14:53:21.439Z,11.35
2022-08-02T14:54:53.635Z,6.43
2022-08-02T14:56:25.778Z,8.68
2022-08-02T14:58:01.018Z,7.50
2022-08-02T14:59:32.945Z,7.72
2022-08-02T15:01:08.302Z,6.68
2022-08-02T15:02:40.069Z,6.88
2022-08-02T15:04:11.774Z,5.85
2022-08-02T15:05:43.563Z,7.22
2022-08-02T15:07:15.317Z,8.68
2022-08-02T15:08:47.113Z,8.40
2022-08-02T15:10:19.051Z,6.45
2022-08-02T15:11:50.826Z,8.07
2022-08-02T15:13:23.858Z,5.68
2022-08-02T15:14:55.887Z,6.05
2022-08-02T15:16:41.842Z,7.20
2022-08-02T15:18:19.426Z,6.50
2022-08-02T15:19:58.999Z,7.78
2022-08-02T15:21:41.718Z,8.20
2022-08-02T15:23:25.191Z,5.00
2022-08-02T15:25:14.578Z,5.80
2022-08-02T15:26:46.855Z,6.50
2022-08-02T15:28:18.523Z,7.45
2022-08-02T15:29:51.659Z,7.32
2022-08-02T15:31:33.461Z,7.88
2022-08-02T15:33:05.890Z,7.03
2022-08-02T15:34:37.818Z,5.85
2022-08-02T15:36:10.237Z,9.98
2022-08-02T15:37:42.012Z,7.93
2022-08-02T15:39:13.731Z,8.82
2022-08-02T15:40:45.481Z,6.03
2022-08-02T15:42:18.412Z,22.85
2022-08-02T15:44:00.731Z,8.27
2022-08-02T15:45:34.638Z,8.43
2022-08-02T15:47:07.150Z,9.85
2022-08-02T15:48:39.299Z,6.07
2022-08-02T15:50:11.391Z,5.07
2022-08-02T15:51:43.085Z,10.55
2022-08-02T15:53:14.837Z,5.30
2022-08-02T15:54:46.535Z,6.50
2022-08-02T15:56:18.226Z,5.05
2022-08-02T15:57:55.955Z,6.25
2022-08-02T15:59:27.673Z,5.20
2022-08-02T16:01:00.883Z,4.30
2022-08-02T16:02:32.623Z,5.68
2022-08-02T16:04:04.653Z,6.80
2022-08-02T16:05:36.828Z,6.03
2022-08-02T16:07:09.625Z,5.13
2022-08-02T16:08:53.627Z,6.10
2022-08-02T16:10:26.452Z,6.53
2022-08-02T16:11:58.249Z,5.55
2022-08-02T16:13:53.661Z,5.40
2022-08-02T16:15:26.283Z,7.80
2022-08-02T16:16:59.695Z,6.05
2022-08-02T16:18:31.495Z,7.57
2022-08-02T16:20:04.977Z,7.88
2022-08-02T16:21:36.951Z,7.35
2022-08-02T16:23:08.668Z,6.55
2022-08-02T16:24:40.393Z,6.05
2022-08-02T16:26:12.213Z,5.80
2022-08-02T16:28:06.185Z,8.95
2022-08-02T16:29:37.292Z,8.48
2022-08-02T16:31:11.233Z,6.40
2022-08-02T16:32:44.901Z,9.10
2022-08-02T16:34:17.427Z,4.75
2022-08-02T16:35:49.127Z,6.03
2022-08-02T16:37:20.937Z,6.30
2022-08-02T16:38:54.030Z,8.65
2022-08-02T16:40:25.877Z,7.18
2022-08-02T16:41:57.649Z,6.90
2022-08-02T16:43:29.434Z,5.85
2022-08-02T16:45:01.365Z,5.00
2022-08-02T16:46:33.803Z,4.68
2022-08-02T16:48:07.721Z,5.68
2022-08-02T16:50:07.192Z,7.95
2022-08-02T16:51:32.693Z,7.60
2022-08-02T16:53:07.909Z,7.10
2022-08-02T16:54:39.724Z,6.10
2022-08-02T16:56:12.123Z,6.20
2022-08-02T16:57:50.229Z,5.43
2022-08-02T16:59:25.575Z,6.63
2022-08-02T17:00:57.448Z,5.30
2022-08-02T17:02:29.563Z,7.95
2022-08-02T17:04:02.694Z,6.43
2022-08-02T17:05:56.522Z,6.38
2022-08-02T17:08:15.494Z,5.35
2022-08-02T17:10:02.179Z,6.53
2022-08-02T17:11:12.824Z,4.22
2022-08-02T17:14:41.985Z,6.18
2022-08-02T17:16:27.135Z,7.15
2022-08-02T17:18:00.304Z,6.90
2022-08-02T17:19:38.247Z,5.97
2022-08-02T17:21:10.240Z,5.53
2022-08-02T17:22:44.274Z,6.72
2022-08-02T17:24:16.139Z,6.70
2022-08-02T17:25:52.796Z,6.13
2022-08-02T17:27:24.645Z,6.20
2022-08-02T17:29:16.477Z,5.28
2022-08-02T17:30:49.372Z,5.95
2022-08-02T17:32:21.767Z,5.20
2022-08-02T17:33:53.525Z,4.90
2022-08-02T17:35:40.008Z,8.00
2022-08-02T17:37:19.080Z,7.03
2022-08-02T17:38:51.808Z,7.13
2022-08-02T17:40:23.903Z,6.32
2022-08-02T17:41:55.641Z,7.50
2022-08-02T17:43:29.792Z,6.00
2022-08-02T17:45:16.991Z,7.45
2022-08-02T17:46:53.589Z,7.28
2022-08-02T17:48:29.206Z,6.13
2022-08-02T17:50:09.626Z,6.20
2022-08-02T17:52:48.807Z,6.78
2022-08-02T17:53:38.050Z,8.98
2022-08-02T17:55:12.758Z,6.00
2022-08-02T17:56:46.014Z,5.68
2022-08-02T17:58:17.713Z,8.27
2022-08-02T18:00:03.969Z,6.15
2022-08-02T18:01:41.828Z,8.48
2022-08-02T18:03:25.019Z,4.38
2022-08-02T18:04:56.748Z,7.43
2022-08-02T18:06:29.377Z,6.45
2022-08-02T18:08:03.026Z,6.50
2022-08-02T18:09:35.685Z,5.97
2022-08-02T18:11:07.574Z,5.97
2022-08-02T18:12:40.253Z,7.60
2022-08-02T18:14:17.721Z,7.20
2022-08-02T18:15:50.096Z,7.10
2022-08-02T18:17:22.589Z,6.55
2022-08-02T18:18:54.333Z,6.88
2022-08-02T18:20:26.111Z,5.35
2022-08-02T18:21:57.881Z,6.85
2022-08-02T18:23:31.056Z,7.38
2022-08-02T18:25:09.938Z,6.80
2022-08-02T18:26:43.504Z,6.78
2022-08-02T18:28:15.770Z,7.60
2022-08-02T18:29:47.554Z,6.63
2022-08-02T18:31:39.194Z,5.78
2022-08-02T18:33:59.134Z,7.40
2022-08-02T18:35:03.804Z,11.10
2022-08-02T18:36:35.744Z,7.05
2022-08-02T18:38:19.305Z,7.28
2022-08-02T18:39:52.871Z,6.72
2022-08-02T18:41:24.735Z,8.18
2022-08-02T18:42:57.482Z,7.45
2022-08-02T18:44:29.970Z,6.97
2022-08-02T18:46:06.437Z,7.18
2022-08-02T18:47:51.031Z,6.85
2022-08-02T18:49:25.743Z,7.60
2022-08-02T18:53:09.939Z,6.82
2022-08-02T18:54:44.758Z,7.47
2022-08-02T18:56:19.843Z,10.18
2022-08-02T18:58:01.848Z,9.57
2022-08-02T18:59:51.417Z,7.28
2022-08-02T19:01:33.873Z,9.07
2022-08-02T19:03:07.791Z,7.63
2022-08-02T19:04:43.577Z,6.00
2022-08-02T19:06:27.638Z,8.75
2022-08-02T19:08:01.009Z,9.68
2022-08-02T19:09:35.673Z,8.90
2022-08-02T19:11:07.464Z,5.78
2022-08-02T19:12:40.601Z,8.55
2022-08-02T19:14:12.500Z,7.53
2022-08-02T19:15:50.963Z,10.15
2022-08-02T19:17:55.119Z,6.65
2022-08-02T19:19:19.450Z,6.30
2022-08-02T19:21:02.909Z,6.00
2022-08-02T19:22:37.577Z,7.05
2022-08-02T19:24:09.510Z,6.43
2022-08-02T19:25:50.279Z,13.60
2022-08-02T19:27:32.822Z,9.88
2022-08-02T19:29:08.731Z,6.65
2022-08-02T19:30:42.877Z,11.52
2022-08-02T19:32:42.208Z,7.30
2022-08-02T19:34:12.045Z,8.35
2022-08-02T19:36:01.456Z,9.07
2022-08-02T19:37:40.140Z,9.15
2022-08-02T19:39:16.879Z,10.35
2022-08-02T19:40:49.120Z,12.43
2022-08-02T19:42:21.324Z,8.43
2022-08-02T19:44:25.847Z,7.82
2022-08-02T19:45:50.943Z,7.25
2022-08-02T19:47:23.398Z,10.63
2022-08-02T19:48:56.105Z,10.10
2022-08-02T19:50:28.351Z,8.13
2022-08-02T19:52:03.381Z,10.70
2022-08-02T19:53:53.843Z,8.40
2022-08-02T19:56:01.177Z,7.25
2022-08-02T19:57:23.555Z,8.80
2022-08-02T19:58:59.766Z,8.73
2022-08-02T20:00:32.969Z,7.90
2022-08-02T20:02:06.613Z,12.18
2022-08-02T20:03:52.716Z,9.00
2022-08-02T20:05:26.574Z,12.35
2022-08-02T20:07:00.114Z,11.07
2022-08-02T20:08:35.536Z,10.68
2022-08-02T20:10:10.915Z,11.60
2022-08-02T20:11:43.328Z,9.13
2022-08-02T20:13:15.194Z,12.70
2022-08-02T20:14:51.209Z,11.55
2022-08-02T20:16:28.193Z,19.17
2022-08-02T20:18:01.518Z,12.00
2022-08-02T20:19:33.252Z,10.10
2022-08-02T20:21:07.249Z,14.23
2022-08-02T20:23:32.819Z,11.35
2022-08-02T20:25:07.989Z,11.50
2022-08-02T20:26:47.817Z,11.82
2022-08-02T20:28:21.313Z,12.15
2022-08-02T20:29:53.820Z,9.82
2022-08-02T20:31:25.566Z,10.95
2022-08-02T20:33:21.496Z,10.93
2022-08-02T20:34:53.919Z,12.10
2022-08-02T20:36:26.430Z,9.63
2022-08-02T20:38:01.954Z,11.30
2022-08-02T20:39:42.640Z,12.90
2022-08-02T20:41:21.765Z,9.60
2022-08-02T20:42:56.967Z,10.23
2022-08-02T20:44:31.116Z,9.45
2022-08-02T20:46:03.396Z,9.73
2022-08-02T20:47:39.805Z,9.82
2022-08-02T20:49:23.106Z,10.70
2022-08-02T20:50:56.921Z,10.32
2022-08-02T20:52:30.542Z,10.35
2022-08-02T20:54:02.482Z,11.57
2022-08-02T20:55:39.807Z,9.23
2022-08-02T20:57:12.069Z,12.68
2022-08-02T20:58:43.789Z,9.95